Terminal Aerodrome Forecast
Issued by NWS

Home | Current Version | Previous Version | Text Only | Print | Product List | Glossary On
Versions: 1 2 3 4 5 6 7 8 9 10 11 12 13 14 15 16 17 18
000
FTUS43 KAPX 271720 AAC
TAFAPN
TAF AMD
KAPN 271720Z 2717/2818 12007KT P6SM SHRA SCT020 OVC045
     FM272100 12009KT 3SM SHRA BR OVC015
     FM280100 14009KT 3SM SHRA BR OVC010
     FM280400 18009KT 3SM SHRA BR BKN030
     FM280800 22007KT 3SM SHRADZ BR BKN008
     FM281200 28009KT P6SM BKN003
     FM281500 30009KT P6SM BKN070
     FM281700 31009KT P6SM SCT200=

USA.gov is the U.S. government's official web portal to all federal, state and local government web resources and services.